sensor_id;sensor_type;location;lat;lon;timestamp;P1;durP1;ratioP1;P2;durP2;ratioP2
485;SDS011;229;48.734;9.340;2022-10-16T00:00:48;5.15;;;2.75;;
485;SDS011;229;48.734;9.340;2022-10-16T00:03:15;11.35;;;2.90;;
485;SDS011;229;48.734;9.340;2022-10-16T00:05:42;6.80;;;3.13;;
485;SDS011;229;48.734;9.340;2022-10-16T00:08:10;9.10;;;2.80;;
485;SDS011;229;48.734;9.340;2022-10-16T00:10:39;5.05;;;2.20;;
485;SDS011;229;48.734;9.340;2022-10-16T00:13:07;3.63;;;2.00;;
485;SDS011;229;48.734;9.340;2022-10-16T00:15:34;10.60;;;1.80;;
485;SDS011;229;48.734;9.340;2022-10-16T00:18:02;18.73;;;2.38;;
485;SDS011;229;48.734;9.340;2022-10-16T00:20:29;7.55;;;2.58;;
485;SDS011;229;48.734;9.340;2022-10-16T00:22:58;6.43;;;2.10;;
485;SDS011;229;48.734;9.340;2022-10-16T00:25:25;8.20;;;2.10;;
485;SDS011;229;48.734;9.340;2022-10-16T00:27:54;4.13;;;2.22;;
485;SDS011;229;48.734;9.340;2022-10-16T00:30:21;4.10;;;2.33;;
485;SDS011;229;48.734;9.340;2022-10-16T00:32:49;5.45;;;2.13;;
485;SDS011;229;48.734;9.340;2022-10-16T00:35:16;22.63;;;2.50;;
485;SDS011;229;48.734;9.340;2022-10-16T00:37:43;7.28;;;2.50;;
485;SDS011;229;48.734;9.340;2022-10-16T00:40:10;4.82;;;2.30;;
485;SDS011;229;48.734;9.340;2022-10-16T00:42:37;10.48;;;2.50;;
485;SDS011;229;48.734;9.340;2022-10-16T00:45:08;6.18;;;2.55;;
485;SDS011;229;48.734;9.340;2022-10-16T00:47:36;18.92;;;3.08;;
485;SDS011;229;48.734;9.340;2022-10-16T00:50:05;10.98;;;2.70;;
485;SDS011;229;48.734;9.340;2022-10-16T00:52:33;6.75;;;2.30;;
485;SDS011;229;48.734;9.340;2022-10-16T00:55:01;4.93;;;2.10;;
485;SDS011;229;48.734;9.340;2022-10-16T00:57:29;6.05;;;2.15;;
485;SDS011;229;48.734;9.340;2022-10-16T00:59:56;6.65;;;2.70;;
485;SDS011;229;48.734;9.340;2022-10-16T01:02:25;8.35;;;2.05;;
485;SDS011;229;48.734;9.340;2022-10-16T01:04:52;3.80;;;2.70;;
485;SDS011;229;48.734;9.340;2022-10-16T01:07:24;10.60;;;3.25;;
485;SDS011;229;48.734;9.340;2022-10-16T01:09:57;9.40;;;2.88;;
485;SDS011;229;48.734;9.340;2022-10-16T01:12:27;6.65;;;3.25;;
485;SDS011;229;48.734;9.340;2022-10-16T01:14:58;6.93;;;2.90;;
485;SDS011;229;48.734;9.340;2022-10-16T01:17:28;11.68;;;3.25;;
485;SDS011;229;48.734;9.340;2022-10-16T01:20:05;7.38;;;3.90;;
485;SDS011;229;48.734;9.340;2022-10-16T01:22:37;14.30;;;3.72;;
485;SDS011;229;48.734;9.340;2022-10-16T01:25:06;4.97;;;3.60;;
485;SDS011;229;48.734;9.340;2022-10-16T01:27:37;6.40;;;3.97;;
485;SDS011;229;48.734;9.340;2022-10-16T01:30:07;4.95;;;3.58;;
485;SDS011;229;48.734;9.340;2022-10-16T01:32:38;9.23;;;5.07;;
485;SDS011;229;48.734;9.340;2022-10-16T01:35:08;13.55;;;4.93;;
485;SDS011;229;48.734;9.340;2022-10-16T01:37:37;10.25;;;6.15;;
485;SDS011;229;48.734;9.340;2022-10-16T01:40:07;9.52;;;4.70;;
485;SDS011;229;48.734;9.340;2022-10-16T01:42:38;11.50;;;4.53;;
485;SDS011;229;48.734;9.340;2022-10-16T01:45:07;7.30;;;4.22;;
485;SDS011;229;48.734;9.340;2022-10-16T01:47:36;9.43;;;3.85;;
485;SDS011;229;48.734;9.340;2022-10-16T01:50:05;12.40;;;4.40;;
485;SDS011;229;48.734;9.340;2022-10-16T01:52:33;13.45;;;5.68;;
485;SDS011;229;48.734;9.340;2022-10-16T01:55:02;11.40;;;4.85;;
485;SDS011;229;48.734;9.340;2022-10-16T01:57:30;8.98;;;5.20;;
485;SDS011;229;48.734;9.340;2022-10-16T02:00:00;10.27;;;4.93;;
485;SDS011;229;48.734;9.340;2022-10-16T02:02:28;8.57;;;3.20;;
485;SDS011;229;48.734;9.340;2022-10-16T02:04:58;10.20;;;3.90;;
485;SDS011;229;48.734;9.340;2022-10-16T02:07:26;8.93;;;3.90;;
485;SDS011;229;48.734;9.340;2022-10-16T02:09:53;6.55;;;4.50;;
485;SDS011;229;48.734;9.340;2022-10-16T02:12:23;9.90;;;5.50;;
485;SDS011;229;48.734;9.340;2022-10-16T02:14:52;10.43;;;4.68;;
485;SDS011;229;48.734;9.340;2022-10-16T02:17:20;12.55;;;4.32;;
485;SDS011;229;48.734;9.340;2022-10-16T02:19:48;11.50;;;5.03;;
485;SDS011;229;48.734;9.340;2022-10-16T02:22:17;8.88;;;4.82;;
485;SDS011;229;48.734;9.340;2022-10-16T02:24:49;8.80;;;4.00;;
485;SDS011;229;48.734;9.340;2022-10-16T02:27:18;6.30;;;3.90;;
485;SDS011;229;48.734;9.340;2022-10-16T02:29:47;8.82;;;4.10;;
485;SDS011;229;48.734;9.340;2022-10-16T02:32:15;10.70;;;4.25;;
485;SDS011;229;48.734;9.340;2022-10-16T02:34:45;8.02;;;4.90;;
485;SDS011;229;48.734;9.340;2022-10-16T02:37:13;9.13;;;6.18;;
485;SDS011;229;48.734;9.340;2022-10-16T02:39:41;12.43;;;7.18;;
485;SDS011;229;48.734;9.340;2022-10-16T02:42:09;11.02;;;6.85;;
485;SDS011;229;48.734;9.340;2022-10-16T02:44:36;11.07;;;7.03;;
485;SDS011;229;48.734;9.340;2022-10-16T02:47:04;19.35;;;9.90;;
485;SDS011;229;48.734;9.340;2022-10-16T02:49:31;13.15;;;6.97;;
485;SDS011;229;48.734;9.340;2022-10-16T02:51:59;16.48;;;7.35;;
485;SDS011;229;48.734;9.340;2022-10-16T02:54:26;10.65;;;6.70;;
485;SDS011;229;48.734;9.340;2022-10-16T02:56:54;10.15;;;6.05;;
485;SDS011;229;48.734;9.340;2022-10-16T02:59:21;10.18;;;5.95;;
485;SDS011;229;48.734;9.340;2022-10-16T03:01:48;14.10;;;5.00;;
485;SDS011;229;48.734;9.340;2022-10-16T03:04:15;7.80;;;4.57;;
485;SDS011;229;48.734;9.340;2022-10-16T03:06:42;7.95;;;3.70;;
485;SDS011;229;48.734;9.340;2022-10-16T03:09:11;15.50;;;4.63;;
485;SDS011;229;48.734;9.340;2022-10-16T03:11:38;7.90;;;4.80;;
485;SDS011;229;48.734;9.340;2022-10-16T03:14:05;17.45;;;4.82;;
485;SDS011;229;48.734;9.340;2022-10-16T03:16:32;12.05;;;5.25;;
485;SDS011;229;48.734;9.340;2022-10-16T03:18:59;7.45;;;3.42;;
485;SDS011;229;48.734;9.340;2022-10-16T03:21:27;6.80;;;4.22;;
485;SDS011;229;48.734;9.340;2022-10-16T03:23:54;9.90;;;3.80;;
485;SDS011;229;48.734;9.340;2022-10-16T03:26:23;7.88;;;4.93;;
485;SDS011;229;48.734;9.340;2022-10-16T03:28:50;8.43;;;4.38;;
485;SDS011;229;48.734;9.340;2022-10-16T03:31:17;4.95;;;3.17;;
485;SDS011;229;48.734;9.340;2022-10-16T03:33:44;5.72;;;3.55;;
485;SDS011;229;48.734;9.340;2022-10-16T03:36:11;9.20;;;3.60;;
485;SDS011;229;48.734;9.340;2022-10-16T03:38:39;5.70;;;3.55;;
485;SDS011;229;48.734;9.340;2022-10-16T03:41:06;6.63;;;3.45;;
485;SDS011;229;48.734;9.340;2022-10-16T03:43:35;5.45;;;3.45;;
485;SDS011;229;48.734;9.340;2022-10-16T03:46:02;4.75;;;3.00;;
485;SDS011;229;48.734;9.340;2022-10-16T03:48:29;5.32;;;3.10;;
485;SDS011;229;48.734;9.340;2022-10-16T03:50:57;3.65;;;3.00;;
485;SDS011;229;48.734;9.340;2022-10-16T03:53:24;9.95;;;3.20;;
485;SDS011;229;48.734;9.340;2022-10-16T03:55:51;5.10;;;2.80;;
485;SDS011;229;48.734;9.340;2022-10-16T03:58:18;5.03;;;2.78;;
485;SDS011;229;48.734;9.340;2022-10-16T04:00:47;4.22;;;2.58;;
485;SDS011;229;48.734;9.340;2022-10-16T04:03:14;4.32;;;2.47;;
485;SDS011;229;48.734;9.340;2022-10-16T04:05:43;4.63;;;2.58;;
485;SDS011;229;48.734;9.340;2022-10-16T04:08:11;4.68;;;2.40;;
485;SDS011;229;48.734;9.340;2022-10-16T04:10:38;8.70;;;2.58;;
485;SDS011;229;48.734;9.340;2022-10-16T04:13:05;15.30;;;2.42;;
485;SDS011;229;48.734;9.340;2022-10-16T04:15:32;4.22;;;2.38;;
485;SDS011;229;48.734;9.340;2022-10-16T04:18:01;5.18;;;2.30;;
485;SDS011;229;48.734;9.340;2022-10-16T04:20:28;3.78;;;2.13;;
485;SDS011;229;48.734;9.340;2022-10-16T04:22:55;6.47;;;2.72;;
485;SDS011;229;48.734;9.340;2022-10-16T04:25:23;8.23;;;2.75;;
485;SDS011;229;48.734;9.340;2022-10-16T04:27:52;3.55;;;2.13;;
485;SDS011;229;48.734;9.340;2022-10-16T04:30:19;3.58;;;3.05;;
485;SDS011;229;48.734;9.340;2022-10-16T04:32:47;4.07;;;2.65;;
485;SDS011;229;48.734;9.340;2022-10-16T04:35:16;5.55;;;2.75;;
485;SDS011;229;48.734;9.340;2022-10-16T04:37:43;7.00;;;2.25;;
485;SDS011;229;48.734;9.340;2022-10-16T04:40:11;5.45;;;2.60;;
485;SDS011;229;48.734;9.340;2022-10-16T04:42:38;9.23;;;2.90;;
485;SDS011;229;48.734;9.340;2022-10-16T04:45:06;7.30;;;2.63;;
485;SDS011;229;48.734;9.340;2022-10-16T04:47:33;3.42;;;2.22;;
485;SDS011;229;48.734;9.340;2022-10-16T04:50:00;4.75;;;2.85;;
485;SDS011;229;48.734;9.340;2022-10-16T04:52:29;4.55;;;2.10;;
485;SDS011;229;48.734;9.340;2022-10-16T04:54:56;3.30;;;2.20;;
485;SDS011;229;48.734;9.340;2022-10-16T04:57:27;5.38;;;1.95;;
485;SDS011;229;48.734;9.340;2022-10-16T04:59:55;4.13;;;2.60;;
485;SDS011;229;48.734;9.340;2022-10-16T05:02:22;13.93;;;2.72;;
485;SDS011;229;48.734;9.340;2022-10-16T05:04:49;4.85;;;2.33;;
485;SDS011;229;48.734;9.340;2022-10-16T05:07:16;8.10;;;2.88;;
485;SDS011;229;48.734;9.340;2022-10-16T05:09:45;7.68;;;3.50;;
485;SDS011;229;48.734;9.340;2022-10-16T05:12:12;11.45;;;3.55;;
485;SDS011;229;48.734;9.340;2022-10-16T05:14:39;6.38;;;3.35;;
485;SDS011;229;48.734;9.340;2022-10-16T05:17:06;3.80;;;3.00;;
485;SDS011;229;48.734;9.340;2022-10-16T05:19:33;9.65;;;3.30;;
485;SDS011;229;48.734;9.340;2022-10-16T05:22:01;8.70;;;3.50;;
485;SDS011;229;48.734;9.340;2022-10-16T05:24:28;5.68;;;2.97;;
485;SDS011;229;48.734;9.340;2022-10-16T05:26:56;7.53;;;3.35;;
485;SDS011;229;48.734;9.340;2022-10-16T05:29:24;5.25;;;3.30;;
485;SDS011;229;48.734;9.340;2022-10-16T05:31:51;4.40;;;3.30;;
485;SDS011;229;48.734;9.340;2022-10-16T05:34:18;7.90;;;3.03;;
485;SDS011;229;48.734;9.340;2022-10-16T05:36:46;7.20;;;3.55;;
485;SDS011;229;48.734;9.340;2022-10-16T05:39:13;4.97;;;3.22;;
485;SDS011;229;48.734;9.340;2022-10-16T05:41:40;6.30;;;3.05;;
485;SDS011;229;48.734;9.340;2022-10-16T05:44:09;5.65;;;3.17;;
485;SDS011;229;48.734;9.340;2022-10-16T05:46:36;10.98;;;3.80;;
485;SDS011;229;48.734;9.340;2022-10-16T05:49:03;9.70;;;3.60;;
485;SDS011;229;48.734;9.340;2022-10-16T05:51:31;10.25;;;3.80;;
485;SDS011;229;48.734;9.340;2022-10-16T05:53:58;3.80;;;2.85;;
485;SDS011;229;48.734;9.340;2022-10-16T05:56:25;10.77;;;3.78;;
485;SDS011;229;48.734;9.340;2022-10-16T05:58:52;6.05;;;3.03;;
485;SDS011;229;48.734;9.340;2022-10-16T06:01:21;6.47;;;3.10;;
485;SDS011;229;48.734;9.340;2022-10-16T06:03:49;7.05;;;2.78;;
485;SDS011;229;48.734;9.340;2022-10-16T06:06:17;8.55;;;2.72;;
485;SDS011;229;48.734;9.340;2022-10-16T06:08:45;8.85;;;2.78;;
485;SDS011;229;48.734;9.340;2022-10-16T06:11:14;7.35;;;2.40;;
485;SDS011;229;48.734;9.340;2022-10-16T06:13:41;7.13;;;3.38;;
485;SDS011;229;48.734;9.340;2022-10-16T06:16:10;5.07;;;2.78;;
485;SDS011;229;48.734;9.340;2022-10-16T06:18:39;2.58;;;2.40;;
485;SDS011;229;48.734;9.340;2022-10-16T06:21:07;7.13;;;3.10;;
485;SDS011;229;48.734;9.340;2022-10-16T06:23:34;7.70;;;2.05;;
485;SDS011;229;48.734;9.340;2022-10-16T06:26:05;4.97;;;2.80;;
485;SDS011;229;48.734;9.340;2022-10-16T06:28:33;9.05;;;3.05;;
485;SDS011;229;48.734;9.340;2022-10-16T06:31:00;5.35;;;2.60;;
485;SDS011;229;48.734;9.340;2022-10-16T06:33:28;5.72;;;2.70;;
485;SDS011;229;48.734;9.340;2022-10-16T06:36:01;10.95;;;3.63;;
485;SDS011;229;48.734;9.340;2022-10-16T06:38:28;3.92;;;2.63;;
485;SDS011;229;48.734;9.340;2022-10-16T06:40:56;5.13;;;2.72;;
485;SDS011;229;48.734;9.340;2022-10-16T06:43:26;5.68;;;3.05;;
485;SDS011;229;48.734;9.340;2022-10-16T06:45:55;4.38;;;2.28;;
485;SDS011;229;48.734;9.340;2022-10-16T06:48:23;4.00;;;2.85;;
485;SDS011;229;48.734;9.340;2022-10-16T06:50:57;6.88;;;3.60;;
485;SDS011;229;48.734;9.340;2022-10-16T06:53:26;6.45;;;3.25;;
485;SDS011;229;48.734;9.340;2022-10-16T06:55:57;8.25;;;2.90;;
485;SDS011;229;48.734;9.340;2022-10-16T06:58:24;9.15;;;3.25;;
485;SDS011;229;48.734;9.340;2022-10-16T07:00:54;5.32;;;3.15;;
485;SDS011;229;48.734;9.340;2022-10-16T07:03:22;4.38;;;2.40;;
485;SDS011;229;48.734;9.340;2022-10-16T07:05:49;3.97;;;3.10;;
485;SDS011;229;48.734;9.340;2022-10-16T07:08:16;4.75;;;3.38;;
485;SDS011;229;48.734;9.340;2022-10-16T07:10:45;5.68;;;3.70;;
485;SDS011;229;48.734;9.340;2022-10-16T07:13:12;5.75;;;3.05;;
485;SDS011;229;48.734;9.340;2022-10-16T07:15:39;5.30;;;2.72;;
485;SDS011;229;48.734;9.340;2022-10-16T07:18:06;6.20;;;3.10;;
485;SDS011;229;48.734;9.340;2022-10-16T07:20:34;6.80;;;3.13;;
485;SDS011;229;48.734;9.340;2022-10-16T07:23:02;15.65;;;3.08;;
485;SDS011;229;48.734;9.340;2022-10-16T07:25:29;6.70;;;3.20;;
485;SDS011;229;48.734;9.340;2022-10-16T07:27:58;5.20;;;3.60;;
485;SDS011;229;48.734;9.340;2022-10-16T07:30:25;5.05;;;3.33;;
485;SDS011;229;48.734;9.340;2022-10-16T07:32:52;6.47;;;2.78;;
485;SDS011;229;48.734;9.340;2022-10-16T07:35:19;5.40;;;2.88;;
485;SDS011;229;48.734;9.340;2022-10-16T07:37:46;10.13;;;3.28;;
485;SDS011;229;48.734;9.340;2022-10-16T07:40:14;4.05;;;3.00;;
485;SDS011;229;48.734;9.340;2022-10-16T07:42:41;9.48;;;3.45;;
485;SDS011;229;48.734;9.340;2022-10-16T07:45:09;4.85;;;2.58;;
485;SDS011;229;48.734;9.340;2022-10-16T07:47:37;7.28;;;3.13;;
485;SDS011;229;48.734;9.340;2022-10-16T07:50:04;8.05;;;3.00;;
485;SDS011;229;48.734;9.340;2022-10-16T07:52:31;5.32;;;3.15;;
485;SDS011;229;48.734;9.340;2022-10-16T07:54:58;9.95;;;2.92;;
485;SDS011;229;48.734;9.340;2022-10-16T07:57:25;5.57;;;3.00;;
485;SDS011;229;48.734;9.340;2022-10-16T07:59:53;4.32;;;2.80;;
485;SDS011;229;48.734;9.340;2022-10-16T08:02:21;3.63;;;2.80;;
485;SDS011;229;48.734;9.340;2022-10-16T08:04:48;7.78;;;3.78;;
485;SDS011;229;48.734;9.340;2022-10-16T08:07:16;3.97;;;2.95;;
485;SDS011;229;48.734;9.340;2022-10-16T08:09:43;6.88;;;3.33;;
485;SDS011;229;48.734;9.340;2022-10-16T08:12:10;5.15;;;3.20;;
485;SDS011;229;48.734;9.340;2022-10-16T08:14:37;6.85;;;3.22;;
485;SDS011;229;48.734;9.340;2022-10-16T08:17:05;13.82;;;3.53;;
485;SDS011;229;48.734;9.340;2022-10-16T08:19:33;6.32;;;3.38;;
485;SDS011;229;48.734;9.340;2022-10-16T08:22:00;6.38;;;3.33;;
485;SDS011;229;48.734;9.340;2022-10-16T08:24:28;10.18;;;3.15;;
485;SDS011;229;48.734;9.340;2022-10-16T08:26:56;10.00;;;3.45;;
485;SDS011;229;48.734;9.340;2022-10-16T08:29:23;5.82;;;3.20;;
485;SDS011;229;48.734;9.340;2022-10-16T08:31:50;14.10;;;3.65;;
485;SDS011;229;48.734;9.340;2022-10-16T08:34:17;10.00;;;3.50;;
485;SDS011;229;48.734;9.340;2022-10-16T08:36:46;5.03;;;2.85;;
485;SDS011;229;48.734;9.340;2022-10-16T08:39:13;4.97;;;2.70;;
485;SDS011;229;48.734;9.340;2022-10-16T08:44:50;4.53;;;2.92;;
485;SDS011;229;48.734;9.340;2022-10-16T08:47:22;9.35;;;3.05;;
485;SDS011;229;48.734;9.340;2022-10-16T08:49:53;12.18;;;3.58;;
485;SDS011;229;48.734;9.340;2022-10-16T08:52:23;8.70;;;3.90;;
485;SDS011;229;48.734;9.340;2022-10-16T08:54:53;5.77;;;2.77;;
485;SDS011;229;48.734;9.340;2022-10-16T08:57:21;5.70;;;2.60;;
485;SDS011;229;48.734;9.340;2022-10-16T08:59:49;6.03;;;2.53;;
485;SDS011;229;48.734;9.340;2022-10-16T09:02:20;6.07;;;2.53;;
485;SDS011;229;48.734;9.340;2022-10-16T09:04:55;3.47;;;2.28;;
485;SDS011;229;48.734;9.340;2022-10-16T09:07:28;7.55;;;2.60;;
485;SDS011;229;48.734;9.340;2022-10-16T09:10:06;5.32;;;2.35;;
485;SDS011;229;48.734;9.340;2022-10-16T09:12:38;4.03;;;2.35;;
485;SDS011;229;48.734;9.340;2022-10-16T09:15:12;5.20;;;2.60;;
485;SDS011;229;48.734;9.340;2022-10-16T09:17:43;3.30;;;2.67;;
485;SDS011;229;48.734;9.340;2022-10-16T09:20:19;4.15;;;2.67;;
485;SDS011;229;48.734;9.340;2022-10-16T09:22:52;3.75;;;2.70;;
485;SDS011;229;48.734;9.340;2022-10-16T09:25:20;4.35;;;1.98;;
485;SDS011;229;48.734;9.340;2022-10-16T09:27:48;3.08;;;2.22;;
485;SDS011;229;48.734;9.340;2022-10-16T09:30:20;6.40;;;2.58;;
485;SDS011;229;48.734;9.340;2022-10-16T09:32:48;6.60;;;2.23;;
485;SDS011;229;48.734;9.340;2022-10-16T09:35:17;10.43;;;3.17;;
485;SDS011;229;48.734;9.340;2022-10-16T09:37:45;13.13;;;3.27;;
485;SDS011;229;48.734;9.340;2022-10-16T09:40:23;4.37;;;2.30;;
485;SDS011;229;48.734;9.340;2022-10-16T09:42:51;6.67;;;2.50;;
485;SDS011;229;48.734;9.340;2022-10-16T09:45:20;4.77;;;2.13;;
485;SDS011;229;48.734;9.340;2022-10-16T09:47:48;5.87;;;2.37;;
485;SDS011;229;48.734;9.340;2022-10-16T09:50:20;4.50;;;3.40;;
485;SDS011;229;48.734;9.340;2022-10-16T09:52:48;3.40;;;2.20;;
485;SDS011;229;48.734;9.340;2022-10-16T09:55:17;2.73;;;2.40;;
485;SDS011;229;48.734;9.340;2022-10-16T09:57:48;4.50;;;2.40;;
485;SDS011;229;48.734;9.340;2022-10-16T10:00:16;5.50;;;2.40;;
485;SDS011;229;48.734;9.340;2022-10-16T10:02:43;5.13;;;2.33;;
485;SDS011;229;48.734;9.340;2022-10-16T10:05:17;5.27;;;2.47;;
485;SDS011;229;48.734;9.340;2022-10-16T10:07:46;5.17;;;2.33;;
485;SDS011;229;48.734;9.340;2022-10-16T10:10:21;7.40;;;2.33;;
485;SDS011;229;48.734;9.340;2022-10-16T10:12:49;4.87;;;2.70;;
485;SDS011;229;48.734;9.340;2022-10-16T10:15:16;4.07;;;2.27;;
485;SDS011;229;48.734;9.340;2022-10-16T10:17:46;3.20;;;2.20;;
485;SDS011;229;48.734;9.340;2022-10-16T10:20:18;4.10;;;2.23;;
485;SDS011;229;48.734;9.340;2022-10-16T10:22:48;3.50;;;1.90;;
485;SDS011;229;48.734;9.340;2022-10-16T10:25:18;3.90;;;2.33;;
485;SDS011;229;48.734;9.340;2022-10-16T10:27:53;4.97;;;2.33;;
485;SDS011;229;48.734;9.340;2022-10-16T10:30:24;4.47;;;2.30;;
485;SDS011;229;48.734;9.340;2022-10-16T10:32:55;5.87;;;2.73;;
485;SDS011;229;48.734;9.340;2022-10-16T10:35:28;5.70;;;2.90;;
485;SDS011;229;48.734;9.340;2022-10-16T10:38:02;2.97;;;1.97;;
485;SDS011;229;48.734;9.340;2022-10-16T10:40:39;4.03;;;2.47;;
485;SDS011;229;48.734;9.340;2022-10-16T10:43:14;8.00;;;2.30;;
485;SDS011;229;48.734;9.340;2022-10-16T10:45:46;5.43;;;2.50;;
485;SDS011;229;48.734;9.340;2022-10-16T10:48:17;7.77;;;2.50;;
485;SDS011;229;48.734;9.340;2022-10-16T10:50:47;4.23;;;2.87;;
485;SDS011;229;48.734;9.340;2022-10-16T10:53:21;3.83;;;2.63;;
485;SDS011;229;48.734;9.340;2022-10-16T10:55:52;3.37;;;2.63;;
485;SDS011;229;48.734;9.340;2022-10-16T10:58:26;5.20;;;2.97;;
485;SDS011;229;48.734;9.340;2022-10-16T11:00:57;5.10;;;2.60;;
485;SDS011;229;48.734;9.340;2022-10-16T11:03:31;5.73;;;2.40;;
485;SDS011;229;48.734;9.340;2022-10-16T11:06:03;3.87;;;2.60;;
485;SDS011;229;48.734;9.340;2022-10-16T11:08:33;4.23;;;3.17;;
485;SDS011;229;48.734;9.340;2022-10-16T11:11:02;6.90;;;2.50;;
485;SDS011;229;48.734;9.340;2022-10-16T11:13:32;6.47;;;2.60;;
485;SDS011;229;48.734;9.340;2022-10-16T11:16:02;2.90;;;2.00;;
485;SDS011;229;48.734;9.340;2022-10-16T11:18:32;3.47;;;2.43;;
485;SDS011;229;48.734;9.340;2022-10-16T11:21:02;2.60;;;2.40;;
485;SDS011;229;48.734;9.340;2022-10-16T11:23:31;2.63;;;2.20;;
485;SDS011;229;48.734;9.340;2022-10-16T11:26:04;5.00;;;2.50;;
485;SDS011;229;48.734;9.340;2022-10-16T11:28:34;11.20;;;3.00;;
485;SDS011;229;48.734;9.340;2022-10-16T11:31:05;3.00;;;2.43;;
485;SDS011;229;48.734;9.340;2022-10-16T11:33:36;3.30;;;2.30;;
485;SDS011;229;48.734;9.340;2022-10-16T11:36:08;6.50;;;2.30;;
485;SDS011;229;48.734;9.340;2022-10-16T11:38:39;3.57;;;2.33;;
485;SDS011;229;48.734;9.340;2022-10-16T11:41:12;5.17;;;3.03;;
485;SDS011;229;48.734;9.340;2022-10-16T11:43:45;3.70;;;2.30;;
485;SDS011;229;48.734;9.340;2022-10-16T11:46:17;3.27;;;2.50;;
485;SDS011;229;48.734;9.340;2022-10-16T11:48:47;4.67;;;2.90;;
485;SDS011;229;48.734;9.340;2022-10-16T11:51:19;3.40;;;2.40;;
485;SDS011;229;48.734;9.340;2022-10-16T11:53:50;3.40;;;2.30;;
485;SDS011;229;48.734;9.340;2022-10-16T11:56:20;5.03;;;2.90;;
485;SDS011;229;48.734;9.340;2022-10-16T11:58:52;5.20;;;2.90;;
485;SDS011;229;48.734;9.340;2022-10-16T12:01:22;3.83;;;2.63;;
485;SDS011;229;48.734;9.340;2022-10-16T12:03:56;3.10;;;2.43;;
485;SDS011;229;48.734;9.340;2022-10-16T12:06:29;3.47;;;2.77;;
485;SDS011;229;48.734;9.340;2022-10-16T12:08:58;2.73;;;2.53;;
485;SDS011;229;48.734;9.340;2022-10-16T12:11:33;3.80;;;2.50;;
485;SDS011;229;48.734;9.340;2022-10-16T12:14:18;3.63;;;2.67;;
485;SDS011;229;48.734;9.340;2022-10-16T12:16:52;3.00;;;2.57;;
485;SDS011;229;48.734;9.340;2022-10-16T12:19:20;4.23;;;2.60;;
485;SDS011;229;48.734;9.340;2022-10-16T12:21:48;2.70;;;2.50;;
485;SDS011;229;48.734;9.340;2022-10-16T12:24:21;5.00;;;2.60;;
485;SDS011;229;48.734;9.340;2022-10-16T12:26:48;5.40;;;2.30;;
485;SDS011;229;48.734;9.340;2022-10-16T12:29:22;3.67;;;2.60;;
485;SDS011;229;48.734;9.340;2022-10-16T12:31:50;3.87;;;2.67;;
485;SDS011;229;48.734;9.340;2022-10-16T12:34:20;3.73;;;2.70;;
485;SDS011;229;48.734;9.340;2022-10-16T12:36:48;3.37;;;3.00;;
485;SDS011;229;48.734;9.340;2022-10-16T12:39:20;6.07;;;4.20;;
485;SDS011;229;48.734;9.340;2022-10-16T12:41:47;9.57;;;3.97;;
485;SDS011;229;48.734;9.340;2022-10-16T12:44:22;7.50;;;4.00;;
485;SDS011;229;48.734;9.340;2022-10-16T12:46:51;3.50;;;2.90;;
485;SDS011;229;48.734;9.340;2022-10-16T12:49:22;2.80;;;2.60;;
485;SDS011;229;48.734;9.340;2022-10-16T12:51:50;3.00;;;2.67;;
485;SDS011;229;48.734;9.340;2022-10-16T12:54:20;8.83;;;2.80;;
485;SDS011;229;48.734;9.340;2022-10-16T12:56:51;2.70;;;2.50;;
485;SDS011;229;48.734;9.340;2022-10-16T12:59:28;3.63;;;2.93;;
485;SDS011;229;48.734;9.340;2022-10-16T13:02:01;3.37;;;3.07;;
485;SDS011;229;48.734;9.340;2022-10-16T13:04:39;7.50;;;3.17;;
485;SDS011;229;48.734;9.340;2022-10-16T13:07:16;3.47;;;3.27;;
485;SDS011;229;48.734;9.340;2022-10-16T13:09:50;7.77;;;3.60;;
485;SDS011;229;48.734;9.340;2022-10-16T13:15:04;3.60;;;3.17;;
485;SDS011;229;48.734;9.340;2022-10-16T13:17:37;6.17;;;3.00;;
485;SDS011;229;48.734;9.340;2022-10-16T13:20:10;5.00;;;3.00;;
485;SDS011;229;48.734;9.340;2022-10-16T13:22:42;7.20;;;3.10;;
485;SDS011;229;48.734;9.340;2022-10-16T13:25:19;3.20;;;2.90;;
485;SDS011;229;48.734;9.340;2022-10-16T13:27:49;3.40;;;2.60;;
485;SDS011;229;48.734;9.340;2022-10-16T13:30:21;3.07;;;2.90;;
485;SDS011;229;48.734;9.340;2022-10-16T13:32:49;2.70;;;2.50;;
485;SDS011;229;48.734;9.340;2022-10-16T13:35:21;3.90;;;2.70;;
485;SDS011;229;48.734;9.340;2022-10-16T13:37:49;5.00;;;2.93;;
485;SDS011;229;48.734;9.340;2022-10-16T13:40:20;4.40;;;3.10;;
485;SDS011;229;48.734;9.340;2022-10-16T13:42:47;5.20;;;2.80;;
485;SDS011;229;48.734;9.340;2022-10-16T13:45:18;4.10;;;3.17;;
485;SDS011;229;48.734;9.340;2022-10-16T13:47:47;3.43;;;3.20;;
485;SDS011;229;48.734;9.340;2022-10-16T13:50:15;4.53;;;2.97;;
485;SDS011;229;48.734;9.340;2022-10-16T13:52:43;3.30;;;3.10;;
485;SDS011;229;48.734;9.340;2022-10-16T13:55:10;2.80;;;2.67;;
485;SDS011;229;48.734;9.340;2022-10-16T13:57:38;3.50;;;2.80;;
485;SDS011;229;48.734;9.340;2022-10-16T14:00:17;3.47;;;2.80;;
485;SDS011;229;48.734;9.340;2022-10-16T14:02:44;3.03;;;2.83;;
485;SDS011;229;48.734;9.340;2022-10-16T14:05:14;3.30;;;3.00;;
485;SDS011;229;48.734;9.340;2022-10-16T14:07:41;5.10;;;3.27;;
485;SDS011;229;48.734;9.340;2022-10-16T14:10:18;3.13;;;2.93;;
485;SDS011;229;48.734;9.340;2022-10-16T14:12:53;3.93;;;3.20;;
485;SDS011;229;48.734;9.340;2022-10-16T14:15:21;2.90;;;2.77;;
485;SDS011;229;48.734;9.340;2022-10-16T14:17:50;4.47;;;3.13;;
485;SDS011;229;48.734;9.340;2022-10-16T14:20:19;3.17;;;2.97;;
485;SDS011;229;48.734;9.340;2022-10-16T14:22:48;3.00;;;2.80;;
485;SDS011;229;48.734;9.340;2022-10-16T14:25:26;3.50;;;3.20;;
485;SDS011;229;48.734;9.340;2022-10-16T14:27:57;3.20;;;3.00;;
485;SDS011;229;48.734;9.340;2022-10-16T14:30:24;3.70;;;3.07;;
485;SDS011;229;48.734;9.340;2022-10-16T14:32:53;3.50;;;3.37;;
485;SDS011;229;48.734;9.340;2022-10-16T14:35:27;4.47;;;3.70;;
485;SDS011;229;48.734;9.340;2022-10-16T14:37:55;4.30;;;4.07;;
485;SDS011;229;48.734;9.340;2022-10-16T14:40:23;5.53;;;4.27;;
485;SDS011;229;48.734;9.340;2022-10-16T14:42:51;4.43;;;4.20;;
485;SDS011;229;48.734;9.340;2022-10-16T14:45:19;5.10;;;4.70;;
485;SDS011;229;48.734;9.340;2022-10-16T14:47:47;7.20;;;5.80;;
485;SDS011;229;48.734;9.340;2022-10-16T14:50:15;11.50;;;6.73;;
485;SDS011;229;48.734;9.340;2022-10-16T14:52:44;9.87;;;5.43;;
485;SDS011;229;48.734;9.340;2022-10-16T14:55:11;8.87;;;6.23;;
485;SDS011;229;48.734;9.340;2022-10-16T14:57:39;18.13;;;8.60;;
485;SDS011;229;48.734;9.340;2022-10-16T15:00:09;33.47;;;18.63;;
485;SDS011;229;48.734;9.340;2022-10-16T15:02:37;15.87;;;11.13;;
485;SDS011;229;48.734;9.340;2022-10-16T15:05:10;12.40;;;6.80;;
485;SDS011;229;48.734;9.340;2022-10-16T15:07:38;8.33;;;5.70;;
485;SDS011;229;48.734;9.340;2022-10-16T15:10:07;10.20;;;6.43;;
485;SDS011;229;48.734;9.340;2022-10-16T15:12:34;9.00;;;5.30;;
485;SDS011;229;48.734;9.340;2022-10-16T15:15:01;15.33;;;7.20;;
485;SDS011;229;48.734;9.340;2022-10-16T15:17:29;14.97;;;9.50;;
485;SDS011;229;48.734;9.340;2022-10-16T15:19:56;21.73;;;11.60;;
485;SDS011;229;48.734;9.340;2022-10-16T15:22:24;20.83;;;11.10;;
485;SDS011;229;48.734;9.340;2022-10-16T15:24:51;35.57;;;20.30;;
485;SDS011;229;48.734;9.340;2022-10-16T15:27:19;31.00;;;14.80;;
485;SDS011;229;48.734;9.340;2022-10-16T15:29:47;58.57;;;27.40;;
485;SDS011;229;48.734;9.340;2022-10-16T15:32:14;19.60;;;10.17;;
485;SDS011;229;48.734;9.340;2022-10-16T15:34:41;10.40;;;6.33;;
485;SDS011;229;48.734;9.340;2022-10-16T15:37:08;9.37;;;4.57;;
485;SDS011;229;48.734;9.340;2022-10-16T15:39:36;9.40;;;3.80;;
485;SDS011;229;48.734;9.340;2022-10-16T15:42:04;22.03;;;6.77;;
485;SDS011;229;48.734;9.340;2022-10-16T15:44:33;12.40;;;8.30;;
485;SDS011;229;48.734;9.340;2022-10-16T15:47:00;17.07;;;10.60;;
485;SDS011;229;48.734;9.340;2022-10-16T15:49:27;15.90;;;10.30;;
485;SDS011;229;48.734;9.340;2022-10-16T15:51:54;13.67;;;8.67;;
485;SDS011;229;48.734;9.340;2022-10-16T15:54:22;15.27;;;7.53;;
485;SDS011;229;48.734;9.340;2022-10-16T15:56:49;12.43;;;6.73;;
485;SDS011;229;48.734;9.340;2022-10-16T15:59:17;12.63;;;5.50;;